Terminal Aerodrome Forecast
Issued by NWS Portland, OR

Home | Current Version | Previous Version | Text Only | Print | Product List | Glossary On
Versions: 1 2 3 4 5 6 7 8 9 10 11 12 13 14 15 16 17 18 19 20 21 22 23 24 25 26 27 28 29 30 31 32 33 34 35 36 37
000
FTUS46 KPQR 051317 AAA
TAFEUG
TAF AMD
KEUG 051317Z 0513/0612 19004KT P6SM SCT040 BKN070
     FM051400 17003KT 6SM BR SCT010 SCT040 BKN070
      TEMPO 0514/0516 3SM BR SCT002 BKN010
     FM051700 26005KT P6SM FEW025 SCT030
     FM052100 29007KT P6SM FEW030
     FM060300 19004KT P6SM BKN120=

USA.gov is the U.S. government's official web portal to all federal, state and local government web resources and services.